sensor_id;sensor_type;location;lat;lon;timestamp;P1;durP1;ratioP1;P2;durP2;ratioP2
64142;SDS011;50437;51.970;5.904;2023-02-28T00:01:38;5.53;;;1.55;;
64142;SDS011;50437;51.970;5.904;2023-02-28T00:04:07;3.85;;;1.17;;
64142;SDS011;50437;51.970;5.904;2023-02-28T00:06:38;2.45;;;1.13;;
64142;SDS011;50437;51.970;5.904;2023-02-28T00:09:06;5.95;;;1.42;;
64142;SDS011;50437;51.970;5.904;2023-02-28T00:11:34;5.10;;;1.55;;
64142;SDS011;50437;51.970;5.904;2023-02-28T00:14:03;6.07;;;1.15;;
64142;SDS011;50437;51.970;5.904;2023-02-28T00:16:31;3.67;;;1.17;;
64142;SDS011;50437;51.970;5.904;2023-02-28T00:18:58;1.70;;;1.45;;
64142;SDS011;50437;51.970;5.904;2023-02-28T00:21:25;6.32;;;1.45;;
64142;SDS011;50437;51.970;5.904;2023-02-28T00:23:52;6.57;;;1.85;;
64142;SDS011;50437;51.970;5.904;2023-02-28T00:26:18;3.00;;;1.38;;
64142;SDS011;50437;51.970;5.904;2023-02-28T00:28:46;3.43;;;1.27;;
64142;SDS011;50437;51.970;5.904;2023-02-28T00:31:15;3.15;;;1.65;;
64142;SDS011;50437;51.970;5.904;2023-02-28T00:33:42;2.63;;;1.48;;
64142;SDS011;50437;51.970;5.904;2023-02-28T00:36:21;1.95;;;1.85;;
64142;SDS011;50437;51.970;5.904;2023-02-28T00:38:48;3.95;;;1.13;;
64142;SDS011;50437;51.970;5.904;2023-02-28T00:41:17;3.20;;;1.00;;
64142;SDS011;50437;51.970;5.904;2023-02-28T00:43:43;1.45;;;0.95;;
64142;SDS011;50437;51.970;5.904;2023-02-28T00:46:10;6.18;;;1.52;;
64142;SDS011;50437;51.970;5.904;2023-02-28T00:48:36;3.90;;;1.77;;
64142;SDS011;50437;51.970;5.904;2023-02-28T00:51:03;1.73;;;1.15;;
64142;SDS011;50437;51.970;5.904;2023-02-28T00:53:32;3.42;;;0.80;;
64142;SDS011;50437;51.970;5.904;2023-02-28T00:55:59;1.38;;;0.90;;
64142;SDS011;50437;51.970;5.904;2023-02-28T00:58:26;5.43;;;1.27;;
64142;SDS011;50437;51.970;5.904;2023-02-28T01:00:52;8.70;;;1.55;;
64142;SDS011;50437;51.970;5.904;2023-02-28T01:05:49;4.93;;;1.10;;
64142;SDS011;50437;51.970;5.904;2023-02-28T01:08:18;3.03;;;1.02;;
64142;SDS011;50437;51.970;5.904;2023-02-28T01:10:45;14.33;;;3.17;;
64142;SDS011;50437;51.970;5.904;2023-02-28T01:13:11;5.28;;;1.20;;
64142;SDS011;50437;51.970;5.904;2023-02-28T01:15:39;3.95;;;1.20;;
64142;SDS011;50437;51.970;5.904;2023-02-28T01:18:10;2.05;;;1.40;;
64142;SDS011;50437;51.970;5.904;2023-02-28T01:20:38;2.17;;;1.20;;
64142;SDS011;50437;51.970;5.904;2023-02-28T01:23:15;3.20;;;1.08;;
64142;SDS011;50437;51.970;5.904;2023-02-28T01:26:20;7.00;;;1.45;;
64142;SDS011;50437;51.970;5.904;2023-02-28T01:28:51;3.25;;;0.98;;
64142;SDS011;50437;51.970;5.904;2023-02-28T01:31:20;5.10;;;1.30;;
64142;SDS011;50437;51.970;5.904;2023-02-28T01:33:52;3.80;;;0.98;;
64142;SDS011;50437;51.970;5.904;2023-02-28T01:36:22;2.95;;;1.10;;
64142;SDS011;50437;51.970;5.904;2023-02-28T01:38:50;3.20;;;2.03;;
64142;SDS011;50437;51.970;5.904;2023-02-28T01:41:23;4.85;;;1.35;;
64142;SDS011;50437;51.970;5.904;2023-02-28T01:43:56;3.80;;;1.33;;
64142;SDS011;50437;51.970;5.904;2023-02-28T01:46:27;4.95;;;1.30;;
64142;SDS011;50437;51.970;5.904;2023-02-28T01:49:13;4.57;;;0.90;;
64142;SDS011;50437;51.970;5.904;2023-02-28T01:51:43;4.93;;;1.48;;
64142;SDS011;50437;51.970;5.904;2023-02-28T01:54:17;3.92;;;1.45;;
64142;SDS011;50437;51.970;5.904;2023-02-28T01:57:03;4.05;;;1.17;;
64142;SDS011;50437;51.970;5.904;2023-02-28T01:59:34;1.95;;;0.98;;
64142;SDS011;50437;51.970;5.904;2023-02-28T02:02:11;4.97;;;1.58;;
64142;SDS011;50437;51.970;5.904;2023-02-28T02:04:40;2.88;;;1.30;;
64142;SDS011;50437;51.970;5.904;2023-02-28T02:07:24;4.97;;;1.48;;
64142;SDS011;50437;51.970;5.904;2023-02-28T02:10:03;4.22;;;1.60;;
64142;SDS011;50437;51.970;5.904;2023-02-28T02:17:51;6.22;;;1.73;;
64142;SDS011;50437;51.970;5.904;2023-02-28T02:26:22;5.70;;;1.60;;
64142;SDS011;50437;51.970;5.904;2023-02-28T02:35:05;4.80;;;1.83;;
64142;SDS011;50437;51.970;5.904;2023-02-28T02:38:00;2.88;;;1.33;;
64142;SDS011;50437;51.970;5.904;2023-02-28T02:41:18;3.03;;;1.08;;
64142;SDS011;50437;51.970;5.904;2023-02-28T02:47:17;6.38;;;1.65;;
64142;SDS011;50437;51.970;5.904;2023-02-28T02:49:51;7.93;;;1.97;;
64142;SDS011;50437;51.970;5.904;2023-02-28T02:52:42;4.05;;;1.40;;
64142;SDS011;50437;51.970;5.904;2023-02-28T02:55:16;2.95;;;1.55;;
64142;SDS011;50437;51.970;5.904;2023-02-28T02:57:47;3.50;;;2.08;;
64142;SDS011;50437;51.970;5.904;2023-02-28T03:00:23;5.13;;;1.58;;
64142;SDS011;50437;51.970;5.904;2023-02-28T03:02:55;4.40;;;1.88;;
64142;SDS011;50437;51.970;5.904;2023-02-28T03:05:27;3.03;;;1.00;;
64142;SDS011;50437;51.970;5.904;2023-02-28T03:08:04;2.42;;;1.30;;
64142;SDS011;50437;51.970;5.904;2023-02-28T03:10:33;3.53;;;1.50;;
64142;SDS011;50437;51.970;5.904;2023-02-28T03:13:32;3.47;;;1.48;;
64142;SDS011;50437;51.970;5.904;2023-02-28T03:18:54;4.18;;;1.65;;
64142;SDS011;50437;51.970;5.904;2023-02-28T03:24:32;2.75;;;1.98;;
64142;SDS011;50437;51.970;5.904;2023-02-28T03:30:17;4.35;;;1.77;;
64142;SDS011;50437;51.970;5.904;2023-02-28T03:33:21;2.50;;;2.30;;
64142;SDS011;50437;51.970;5.904;2023-02-28T03:35:56;4.80;;;1.48;;
64142;SDS011;50437;51.970;5.904;2023-02-28T03:43:47;2.00;;;0.82;;
64142;SDS011;50437;51.970;5.904;2023-02-28T03:46:20;6.18;;;1.27;;
64142;SDS011;50437;51.970;5.904;2023-02-28T03:49:05;2.35;;;2.08;;
64142;SDS011;50437;51.970;5.904;2023-02-28T03:51:48;3.97;;;1.73;;
64142;SDS011;50437;51.970;5.904;2023-02-28T03:54:31;4.20;;;1.40;;
64142;SDS011;50437;51.970;5.904;2023-02-28T03:57:04;1.40;;;1.10;;
64142;SDS011;50437;51.970;5.904;2023-02-28T04:02:10;3.10;;;1.05;;
64142;SDS011;50437;51.970;5.904;2023-02-28T04:04:37;1.73;;;0.95;;
64142;SDS011;50437;51.970;5.904;2023-02-28T04:07:06;1.55;;;0.93;;
64142;SDS011;50437;51.970;5.904;2023-02-28T04:09:34;1.35;;;1.00;;
64142;SDS011;50437;51.970;5.904;2023-02-28T04:12:01;1.40;;;0.88;;
64142;SDS011;50437;51.970;5.904;2023-02-28T04:14:28;1.42;;;1.02;;
64142;SDS011;50437;51.970;5.904;2023-02-28T04:16:55;2.88;;;1.00;;
64142;SDS011;50437;51.970;5.904;2023-02-28T04:19:22;2.72;;;0.93;;
64142;SDS011;50437;51.970;5.904;2023-02-28T04:21:49;2.27;;;0.90;;
64142;SDS011;50437;51.970;5.904;2023-02-28T04:24:21;3.05;;;1.33;;
64142;SDS011;50437;51.970;5.904;2023-02-28T04:26:55;1.55;;;0.60;;
64142;SDS011;50437;51.970;5.904;2023-02-28T04:29:27;6.45;;;0.80;;
64142;SDS011;50437;51.970;5.904;2023-02-28T04:31:55;1.23;;;0.60;;
64142;SDS011;50437;51.970;5.904;2023-02-28T04:34:28;1.45;;;0.70;;
64142;SDS011;50437;51.970;5.904;2023-02-28T04:36:57;1.77;;;0.90;;
64142;SDS011;50437;51.970;5.904;2023-02-28T04:39:24;5.90;;;0.88;;
64142;SDS011;50437;51.970;5.904;2023-02-28T04:41:51;5.30;;;1.05;;
64142;SDS011;50437;51.970;5.904;2023-02-28T04:44:17;0.90;;;0.80;;
64142;SDS011;50437;51.970;5.904;2023-02-28T04:46:52;1.63;;;0.73;;
64142;SDS011;50437;51.970;5.904;2023-02-28T04:49:19;2.55;;;0.50;;
64142;SDS011;50437;51.970;5.904;2023-02-28T04:51:48;1.83;;;0.50;;
64142;SDS011;50437;51.970;5.904;2023-02-28T04:54:18;0.52;;;0.30;;
64142;SDS011;50437;51.970;5.904;2023-02-28T04:56:47;4.57;;;0.40;;
64142;SDS011;50437;51.970;5.904;2023-02-28T04:59:15;2.70;;;0.40;;
64142;SDS011;50437;51.970;5.904;2023-02-28T05:01:48;2.53;;;0.47;;
64142;SDS011;50437;51.970;5.904;2023-02-28T05:04:16;2.58;;;0.50;;
64142;SDS011;50437;51.970;5.904;2023-02-28T05:06:43;1.45;;;0.40;;
64142;SDS011;50437;51.970;5.904;2023-02-28T05:09:10;0.50;;;0.32;;
64142;SDS011;50437;51.970;5.904;2023-02-28T05:11:39;3.92;;;0.50;;
64142;SDS011;50437;51.970;5.904;2023-02-28T05:14:11;0.95;;;0.40;;
64142;SDS011;50437;51.970;5.904;2023-02-28T05:16:39;1.15;;;1.02;;
64142;SDS011;50437;51.970;5.904;2023-02-28T05:19:05;1.98;;;0.32;;
64142;SDS011;50437;51.970;5.904;2023-02-28T05:21:32;1.52;;;0.40;;
64142;SDS011;50437;51.970;5.904;2023-02-28T05:24:01;1.40;;;0.40;;
64142;SDS011;50437;51.970;5.904;2023-02-28T05:26:36;3.45;;;0.55;;
64142;SDS011;50437;51.970;5.904;2023-02-28T05:29:08;2.35;;;0.40;;
64142;SDS011;50437;51.970;5.904;2023-02-28T05:31:35;4.90;;;0.40;;
64142;SDS011;50437;51.970;5.904;2023-02-28T05:34:02;0.70;;;0.43;;
64142;SDS011;50437;51.970;5.904;2023-02-28T05:36:33;2.05;;;0.50;;
64142;SDS011;50437;51.970;5.904;2023-02-28T05:39:03;0.73;;;0.32;;
64142;SDS011;50437;51.970;5.904;2023-02-28T05:41:32;0.60;;;0.40;;
64142;SDS011;50437;51.970;5.904;2023-02-28T05:44:02;2.77;;;0.43;;
64142;SDS011;50437;51.970;5.904;2023-02-28T05:46:28;3.88;;;0.50;;
64142;SDS011;50437;51.970;5.904;2023-02-28T05:48:54;2.05;;;0.52;;
64142;SDS011;50437;51.970;5.904;2023-02-28T05:51:23;2.58;;;0.50;;
64142;SDS011;50437;51.970;5.904;2023-02-28T05:53:52;5.20;;;0.40;;
64142;SDS011;50437;51.970;5.904;2023-02-28T05:56:26;3.55;;;0.40;;
64142;SDS011;50437;51.970;5.904;2023-02-28T06:01:39;1.35;;;0.40;;
64142;SDS011;50437;51.970;5.904;2023-02-28T06:04:08;1.13;;;0.50;;
64142;SDS011;50437;51.970;5.904;2023-02-28T06:06:36;2.58;;;0.57;;
64142;SDS011;50437;51.970;5.904;2023-02-28T06:09:08;4.32;;;0.30;;
64142;SDS011;50437;51.970;5.904;2023-02-28T06:11:35;0.55;;;0.30;;
64142;SDS011;50437;51.970;5.904;2023-02-28T06:14:01;3.78;;;0.40;;
64142;SDS011;50437;51.970;5.904;2023-02-28T06:16:29;3.90;;;0.47;;
64142;SDS011;50437;51.970;5.904;2023-02-28T06:21:44;0.93;;;0.35;;
64142;SDS011;50437;51.970;5.904;2023-02-28T06:24:11;1.98;;;0.30;;
64142;SDS011;50437;51.970;5.904;2023-02-28T06:26:37;1.40;;;0.30;;
64142;SDS011;50437;51.970;5.904;2023-02-28T06:29:04;1.58;;;0.43;;
64142;SDS011;50437;51.970;5.904;2023-02-28T06:34:10;0.65;;;0.40;;
64142;SDS011;50437;51.970;5.904;2023-02-28T06:36:38;3.38;;;0.40;;
64142;SDS011;50437;51.970;5.904;2023-02-28T06:39:08;2.92;;;0.30;;
64142;SDS011;50437;51.970;5.904;2023-02-28T06:41:35;1.27;;;0.50;;
64142;SDS011;50437;51.970;5.904;2023-02-28T06:44:04;1.13;;;0.50;;
64142;SDS011;50437;51.970;5.904;2023-02-28T06:46:32;1.75;;;0.40;;
64142;SDS011;50437;51.970;5.904;2023-02-28T06:49:00;2.65;;;0.50;;
64142;SDS011;50437;51.970;5.904;2023-02-28T06:51:26;1.95;;;0.40;;
64142;SDS011;50437;51.970;5.904;2023-02-28T06:53:53;0.60;;;0.30;;
64142;SDS011;50437;51.970;5.904;2023-02-28T06:56:19;0.38;;;0.32;;
64142;SDS011;50437;51.970;5.904;2023-02-28T06:58:47;1.63;;;0.40;;
64142;SDS011;50437;51.970;5.904;2023-02-28T07:01:15;2.28;;;0.82;;
64142;SDS011;50437;51.970;5.904;2023-02-28T07:03:44;3.47;;;0.40;;
64142;SDS011;50437;51.970;5.904;2023-02-28T07:06:11;1.27;;;0.50;;
64142;SDS011;50437;51.970;5.904;2023-02-28T07:08:37;2.40;;;0.57;;
64142;SDS011;50437;51.970;5.904;2023-02-28T07:11:06;1.90;;;0.60;;
64142;SDS011;50437;51.970;5.904;2023-02-28T07:13:33;3.03;;;0.50;;
64142;SDS011;50437;51.970;5.904;2023-02-28T07:16:04;0.80;;;0.50;;
64142;SDS011;50437;51.970;5.904;2023-02-28T07:18:38;2.15;;;0.50;;
64142;SDS011;50437;51.970;5.904;2023-02-28T07:21:05;1.20;;;0.40;;
64142;SDS011;50437;51.970;5.904;2023-02-28T07:23:36;1.77;;;0.70;;
64142;SDS011;50437;51.970;5.904;2023-02-28T07:26:04;2.10;;;0.40;;
64142;SDS011;50437;51.970;5.904;2023-02-28T07:28:31;2.63;;;1.10;;
64142;SDS011;50437;51.970;5.904;2023-02-28T07:31:04;0.82;;;0.40;;
64142;SDS011;50437;51.970;5.904;2023-02-28T07:33:31;2.30;;;0.52;;
64142;SDS011;50437;51.970;5.904;2023-02-28T07:36:00;3.63;;;0.50;;
64142;SDS011;50437;51.970;5.904;2023-02-28T07:38:34;1.98;;;0.60;;
64142;SDS011;50437;51.970;5.904;2023-02-28T07:41:02;0.85;;;0.50;;
64142;SDS011;50437;51.970;5.904;2023-02-28T07:43:32;1.30;;;0.60;;
64142;SDS011;50437;51.970;5.904;2023-02-28T07:46:02;4.35;;;0.68;;
64142;SDS011;50437;51.970;5.904;2023-02-28T07:48:33;3.33;;;0.80;;
64142;SDS011;50437;51.970;5.904;2023-02-28T07:51:02;1.05;;;0.50;;
64142;SDS011;50437;51.970;5.904;2023-02-28T07:53:36;3.50;;;0.57;;
64142;SDS011;50437;51.970;5.904;2023-02-28T07:56:03;3.25;;;0.60;;
64142;SDS011;50437;51.970;5.904;2023-02-28T07:58:36;4.55;;;0.60;;
64142;SDS011;50437;51.970;5.904;2023-02-28T08:01:06;1.05;;;0.55;;
64142;SDS011;50437;51.970;5.904;2023-02-28T08:03:33;4.40;;;0.70;;
64142;SDS011;50437;51.970;5.904;2023-02-28T08:06:01;2.55;;;0.93;;
64142;SDS011;50437;51.970;5.904;2023-02-28T08:08:31;3.97;;;1.20;;
64142;SDS011;50437;51.970;5.904;2023-02-28T08:11:01;1.55;;;0.70;;
64142;SDS011;50437;51.970;5.904;2023-02-28T08:13:29;4.82;;;0.93;;
64142;SDS011;50437;51.970;5.904;2023-02-28T08:15:55;4.82;;;1.33;;
64142;SDS011;50437;51.970;5.904;2023-02-28T08:18:22;4.05;;;0.98;;
64142;SDS011;50437;51.970;5.904;2023-02-28T08:20:51;1.15;;;0.70;;
64142;SDS011;50437;51.970;5.904;2023-02-28T08:23:18;1.67;;;0.70;;
64142;SDS011;50437;51.970;5.904;2023-02-28T08:25:45;4.22;;;0.80;;
64142;SDS011;50437;51.970;5.904;2023-02-28T08:28:19;2.03;;;0.65;;
64142;SDS011;50437;51.970;5.904;2023-02-28T08:33:11;2.55;;;0.40;;
64142;SDS011;50437;51.970;5.904;2023-02-28T08:35:39;1.60;;;0.60;;
64142;SDS011;50437;51.970;5.904;2023-02-28T08:38:05;1.92;;;0.40;;
64142;SDS011;50437;51.970;5.904;2023-02-28T08:40:36;2.17;;;0.85;;
64142;SDS011;50437;51.970;5.904;2023-02-28T08:43:03;0.70;;;0.40;;
64142;SDS011;50437;51.970;5.904;2023-02-28T08:45:30;2.03;;;0.73;;
64142;SDS011;50437;51.970;5.904;2023-02-28T08:50:22;1.38;;;0.30;;
64142;SDS011;50437;51.970;5.904;2023-02-28T08:52:49;1.63;;;0.40;;
64142;SDS011;50437;51.970;5.904;2023-02-28T08:55:15;0.60;;;0.40;;
64142;SDS011;50437;51.970;5.904;2023-02-28T08:57:41;0.90;;;0.30;;
64142;SDS011;50437;51.970;5.904;2023-02-28T09:00:12;1.65;;;0.35;;
64142;SDS011;50437;51.970;5.904;2023-02-28T09:02:39;0.50;;;0.30;;
64142;SDS011;50437;51.970;5.904;2023-02-28T09:05:12;0.52;;;0.30;;
64142;SDS011;50437;51.970;5.904;2023-02-28T09:07:41;0.60;;;0.30;;
64142;SDS011;50437;51.970;5.904;2023-02-28T09:10:18;0.43;;;0.28;;
64142;SDS011;50437;51.970;5.904;2023-02-28T09:12:45;0.47;;;0.40;;
64142;SDS011;50437;51.970;5.904;2023-02-28T09:15:12;1.85;;;0.38;;
64142;SDS011;50437;51.970;5.904;2023-02-28T09:17:38;1.55;;;0.20;;
64142;SDS011;50437;51.970;5.904;2023-02-28T09:20:04;2.88;;;0.25;;
64142;SDS011;50437;51.970;5.904;2023-02-28T09:22:31;0.35;;;0.20;;
64142;SDS011;50437;51.970;5.904;2023-02-28T09:24:58;2.27;;;0.20;;
64142;SDS011;50437;51.970;5.904;2023-02-28T09:27:24;0.28;;;0.20;;
64142;SDS011;50437;51.970;5.904;2023-02-28T09:29:50;1.27;;;0.28;;
64142;SDS011;50437;51.970;5.904;2023-02-28T09:32:16;2.17;;;0.20;;
64142;SDS011;50437;51.970;5.904;2023-02-28T09:34:43;0.55;;;0.30;;
64142;SDS011;50437;51.970;5.904;2023-02-28T09:37:09;2.25;;;0.38;;
64142;SDS011;50437;51.970;5.904;2023-02-28T09:39:35;2.55;;;0.22;;
64142;SDS011;50437;51.970;5.904;2023-02-28T09:42:02;0.40;;;0.30;;
64142;SDS011;50437;51.970;5.904;2023-02-28T09:44:33;1.00;;;0.30;;
64142;SDS011;50437;51.970;5.904;2023-02-28T09:50:03;0.60;;;0.25;;
64142;SDS011;50437;51.970;5.904;2023-02-28T09:52:43;1.88;;;0.30;;
64142;SDS011;50437;51.970;5.904;2023-02-28T09:55:22;0.80;;;0.30;;
64142;SDS011;50437;51.970;5.904;2023-02-28T10:04:08;1.80;;;0.35;;
64142;SDS011;50437;51.970;5.904;2023-02-28T10:06:51;1.08;;;0.30;;
64142;SDS011;50437;51.970;5.904;2023-02-28T10:09:19;0.52;;;0.30;;
64142;SDS011;50437;51.970;5.904;2023-02-28T10:11:50;0.50;;;0.20;;
64142;SDS011;50437;51.970;5.904;2023-02-28T10:14:22;0.40;;;0.20;;
64142;SDS011;50437;51.970;5.904;2023-02-28T10:16:52;0.93;;;0.20;;
64142;SDS011;50437;51.970;5.904;2023-02-28T10:19:20;0.20;;;0.20;;
64142;SDS011;50437;51.970;5.904;2023-02-28T10:21:59;1.33;;;0.20;;
64142;SDS011;50437;51.970;5.904;2023-02-28T10:24:47;1.38;;;0.60;;
64142;SDS011;50437;51.970;5.904;2023-02-28T10:29:46;0.70;;;0.10;;
64142;SDS011;50437;51.970;5.904;2023-02-28T10:32:18;0.40;;;0.20;;
64142;SDS011;50437;51.970;5.904;2023-02-28T10:34:55;0.70;;;0.30;;
64142;SDS011;50437;51.970;5.904;2023-02-28T10:37:25;0.22;;;0.20;;
64142;SDS011;50437;51.970;5.904;2023-02-28T10:39:51;0.30;;;0.20;;
64142;SDS011;50437;51.970;5.904;2023-02-28T10:42:19;0.43;;;0.20;;
64142;SDS011;50437;51.970;5.904;2023-02-28T10:44:47;1.08;;;0.20;;
64142;SDS011;50437;51.970;5.904;2023-02-28T10:47:14;0.20;;;0.20;;
64142;SDS011;50437;51.970;5.904;2023-02-28T10:49:46;0.38;;;0.20;;
64142;SDS011;50437;51.970;5.904;2023-02-28T10:52:14;0.40;;;0.30;;
64142;SDS011;50437;51.970;5.904;2023-02-28T10:55:18;2.90;;;0.38;;
64142;SDS011;50437;51.970;5.904;2023-02-28T10:57:48;0.68;;;0.20;;
64142;SDS011;50437;51.970;5.904;2023-02-28T11:02:42;0.90;;;0.30;;
64142;SDS011;50437;51.970;5.904;2023-02-28T11:08:03;2.30;;;0.22;;
64142;SDS011;50437;51.970;5.904;2023-02-28T11:10:55;7.68;;;0.45;;
64142;SDS011;50437;51.970;5.904;2023-02-28T11:13:32;1.98;;;0.20;;
64142;SDS011;50437;51.970;5.904;2023-02-28T11:16:03;0.57;;;0.30;;
64142;SDS011;50437;51.970;5.904;2023-02-28T11:18:42;0.32;;;0.30;;
64142;SDS011;50437;51.970;5.904;2023-02-28T11:23:54;1.20;;;0.28;;
64142;SDS011;50437;51.970;5.904;2023-02-28T11:26:38;0.40;;;0.28;;
64142;SDS011;50437;51.970;5.904;2023-02-28T11:29:50;0.40;;;0.25;;
64142;SDS011;50437;51.970;5.904;2023-02-28T11:34:44;1.95;;;0.20;;
64142;SDS011;50437;51.970;5.904;2023-02-28T11:37:15;0.98;;;0.22;;
64142;SDS011;50437;51.970;5.904;2023-02-28T11:39:44;0.30;;;0.20;;
64142;SDS011;50437;51.970;5.904;2023-02-28T11:42:22;1.98;;;0.60;;
64142;SDS011;50437;51.970;5.904;2023-02-28T11:56:07;0.40;;;0.30;;
64142;SDS011;50437;51.970;5.904;2023-02-28T12:04:46;3.22;;;0.90;;
64142;SDS011;50437;51.970;5.904;2023-02-28T12:13:00;0.95;;;0.30;;
64142;SDS011;50437;51.970;5.904;2023-02-28T12:18:26;2.17;;;0.30;;
64142;SDS011;50437;51.970;5.904;2023-02-28T12:27:06;2.22;;;0.28;;
64142;SDS011;50437;51.970;5.904;2023-02-28T12:29:43;0.30;;;0.20;;
64142;SDS011;50437;51.970;5.904;2023-02-28T12:32:19;0.82;;;0.40;;
64142;SDS011;50437;51.970;5.904;2023-02-28T12:34:53;0.87;;;0.27;;
64142;SDS011;50437;51.970;5.904;2023-02-28T12:40:31;0.65;;;0.28;;
64142;SDS011;50437;51.970;5.904;2023-02-28T12:43:09;0.60;;;0.40;;
64142;SDS011;50437;51.970;5.904;2023-02-28T12:48:21;1.02;;;0.40;;
64142;SDS011;50437;51.970;5.904;2023-02-28T12:50:54;1.17;;;0.40;;
64142;SDS011;50437;51.970;5.904;2023-02-28T13:09:51;0.47;;;0.20;;
64142;SDS011;50437;51.970;5.904;2023-02-28T13:12:19;1.13;;;0.60;;
64142;SDS011;50437;51.970;5.904;2023-02-28T13:14:48;0.60;;;0.30;;
64142;SDS011;50437;51.970;5.904;2023-02-28T13:17:19;0.70;;;0.32;;
64142;SDS011;50437;51.970;5.904;2023-02-28T13:24:52;0.25;;;0.10;;
64142;SDS011;50437;51.970;5.904;2023-02-28T13:27:20;2.85;;;0.30;;
64142;SDS011;50437;51.970;5.904;2023-02-28T13:29:50;0.50;;;0.20;;
64142;SDS011;50437;51.970;5.904;2023-02-28T13:32:27;0.45;;;0.22;;
64142;SDS011;50437;51.970;5.904;2023-02-28T13:39:50;0.55;;;0.30;;
64142;SDS011;50437;51.970;5.904;2023-02-28T13:47:30;0.60;;;0.30;;
64142;SDS011;50437;51.970;5.904;2023-02-28T13:50:20;1.75;;;0.40;;
64142;SDS011;50437;51.970;5.904;2023-02-28T14:06:38;0.63;;;0.50;;
64142;SDS011;50437;51.970;5.904;2023-02-28T14:11:49;0.38;;;0.30;;
64142;SDS011;50437;51.970;5.904;2023-02-28T14:17:01;1.63;;;0.20;;
64142;SDS011;50437;51.970;5.904;2023-02-28T14:19:32;0.40;;;0.30;;
64142;SDS011;50437;51.970;5.904;2023-02-28T14:28:04;2.00;;;0.40;;
64142;SDS011;50437;51.970;5.904;2023-02-28T14:31:07;2.05;;;0.38;;
64142;SDS011;50437;51.970;5.904;2023-02-28T14:36:41;0.50;;;0.20;;
64142;SDS011;50437;51.970;5.904;2023-02-28T14:41:40;0.40;;;0.30;;
64142;SDS011;50437;51.970;5.904;2023-02-28T14:46:40;1.38;;;0.30;;
64142;SDS011;50437;51.970;5.904;2023-02-28T14:49:13;6.43;;;0.50;;
64142;SDS011;50437;51.970;5.904;2023-02-28T14:51:43;2.35;;;0.20;;
64142;SDS011;50437;51.970;5.904;2023-02-28T14:54:12;1.67;;;0.30;;
64142;SDS011;50437;51.970;5.904;2023-02-28T14:56:41;5.28;;;0.30;;
64142;SDS011;50437;51.970;5.904;2023-02-28T14:59:24;1.35;;;0.40;;
64142;SDS011;50437;51.970;5.904;2023-02-28T15:02:14;0.95;;;0.20;;
64142;SDS011;50437;51.970;5.904;2023-02-28T15:04:52;2.25;;;0.25;;
64142;SDS011;50437;51.970;5.904;2023-02-28T15:07:23;1.48;;;0.30;;
64142;SDS011;50437;51.970;5.904;2023-02-28T15:13:13;1.60;;;0.40;;
64142;SDS011;50437;51.970;5.904;2023-02-28T15:15:54;0.83;;;0.30;;
64142;SDS011;50437;51.970;5.904;2023-02-28T15:21:16;0.80;;;0.30;;
64142;SDS011;50437;51.970;5.904;2023-02-28T15:23:57;0.65;;;0.30;;
64142;SDS011;50437;51.970;5.904;2023-02-28T15:26:32;0.40;;;0.20;;
64142;SDS011;50437;51.970;5.904;2023-02-28T15:29:04;0.77;;;0.30;;
64142;SDS011;50437;51.970;5.904;2023-02-28T15:31:51;0.43;;;0.20;;
64142;SDS011;50437;51.970;5.904;2023-02-28T15:37:00;2.45;;;0.40;;
64142;SDS011;50437;51.970;5.904;2023-02-28T15:39:28;2.30;;;0.30;;
64142;SDS011;50437;51.970;5.904;2023-02-28T15:42:20;1.73;;;0.20;;
64142;SDS011;50437;51.970;5.904;2023-02-28T15:44:47;0.40;;;0.28;;
64142;SDS011;50437;51.970;5.904;2023-02-28T15:47:16;0.50;;;0.30;;
64142;SDS011;50437;51.970;5.904;2023-02-28T15:49:49;0.88;;;0.30;;
64142;SDS011;50437;51.970;5.904;2023-02-28T15:52:22;1.40;;;0.22;;
64142;SDS011;50437;51.970;5.904;2023-02-28T15:57:48;1.23;;;0.40;;
64142;SDS011;50437;51.970;5.904;2023-02-28T16:00:19;0.82;;;0.30;;
64142;SDS011;50437;51.970;5.904;2023-02-28T16:02:47;0.82;;;0.70;;
64142;SDS011;50437;51.970;5.904;2023-02-28T16:05:21;0.25;;;0.20;;
64142;SDS011;50437;51.970;5.904;2023-02-28T16:08:00;6.32;;;0.30;;
64142;SDS011;50437;51.970;5.904;2023-02-28T16:10:36;0.98;;;0.30;;
64142;SDS011;50437;51.970;5.904;2023-02-28T16:13:05;0.50;;;0.30;;
64142;SDS011;50437;51.970;5.904;2023-02-28T16:15:35;1.20;;;0.30;;
64142;SDS011;50437;51.970;5.904;2023-02-28T16:18:08;1.42;;;0.30;;
64142;SDS011;50437;51.970;5.904;2023-02-28T16:20:36;1.35;;;0.30;;
64142;SDS011;50437;51.970;5.904;2023-02-28T16:23:08;0.93;;;0.30;;
64142;SDS011;50437;51.970;5.904;2023-02-28T16:25:38;0.68;;;0.50;;
64142;SDS011;50437;51.970;5.904;2023-02-28T16:28:08;0.57;;;0.30;;
64142;SDS011;50437;51.970;5.904;2023-02-28T16:30:43;2.83;;;0.40;;
64142;SDS011;50437;51.970;5.904;2023-02-28T16:33:09;0.88;;;0.40;;
64142;SDS011;50437;51.970;5.904;2023-02-28T16:35:35;1.85;;;0.75;;
64142;SDS011;50437;51.970;5.904;2023-02-28T16:38:04;1.20;;;0.40;;
64142;SDS011;50437;51.970;5.904;2023-02-28T16:40:33;0.85;;;0.40;;
64142;SDS011;50437;51.970;5.904;2023-02-28T16:43:01;0.70;;;0.40;;
64142;SDS011;50437;51.970;5.904;2023-02-28T16:45:32;0.65;;;0.30;;
64142;SDS011;50437;51.970;5.904;2023-02-28T16:47:59;14.00;;;1.15;;
64142;SDS011;50437;51.970;5.904;2023-02-28T16:50:29;0.95;;;0.40;;
64142;SDS011;50437;51.970;5.904;2023-02-28T16:52:58;1.38;;;0.40;;
64142;SDS011;50437;51.970;5.904;2023-02-28T16:55:24;2.57;;;0.40;;
64142;SDS011;50437;51.970;5.904;2023-02-28T16:57:53;0.98;;;0.40;;
64142;SDS011;50437;51.970;5.904;2023-02-28T17:00:21;1.15;;;0.30;;
64142;SDS011;50437;51.970;5.904;2023-02-28T17:02:48;2.00;;;0.38;;
64142;SDS011;50437;51.970;5.904;2023-02-28T17:05:15;1.65;;;0.50;;
64142;SDS011;50437;51.970;5.904;2023-02-28T17:07:42;1.45;;;0.50;;
64142;SDS011;50437;51.970;5.904;2023-02-28T17:10:19;2.33;;;0.60;;
64142;SDS011;50437;51.970;5.904;2023-02-28T17:12:47;1.38;;;0.60;;
64142;SDS011;50437;51.970;5.904;2023-02-28T17:15:15;1.30;;;0.57;;
64142;SDS011;50437;51.970;5.904;2023-02-28T17:17:42;3.58;;;1.02;;
64142;SDS011;50437;51.970;5.904;2023-02-28T17:20:11;1.85;;;0.50;;
64142;SDS011;50437;51.970;5.904;2023-02-28T17:22:39;3.80;;;0.63;;
64142;SDS011;50437;51.970;5.904;2023-02-28T17:25:05;1.23;;;0.80;;
64142;SDS011;50437;51.970;5.904;2023-02-28T17:27:33;3.28;;;0.50;;
64142;SDS011;50437;51.970;5.904;2023-02-28T17:30:08;0.85;;;0.40;;
64142;SDS011;50437;51.970;5.904;2023-02-28T17:32:49;1.90;;;0.60;;
64142;SDS011;50437;51.970;5.904;2023-02-28T17:35:17;1.10;;;0.73;;
64142;SDS011;50437;51.970;5.904;2023-02-28T17:37:53;1.35;;;0.40;;
64142;SDS011;50437;51.970;5.904;2023-02-28T17:40:21;2.25;;;0.50;;
64142;SDS011;50437;51.970;5.904;2023-02-28T17:42:48;2.75;;;0.50;;
64142;SDS011;50437;51.970;5.904;2023-02-28T17:45:17;0.93;;;0.50;;
64142;SDS011;50437;51.970;5.904;2023-02-28T17:47:45;2.45;;;0.60;;
64142;SDS011;50437;51.970;5.904;2023-02-28T17:50:14;2.15;;;0.60;;
64142;SDS011;50437;51.970;5.904;2023-02-28T17:52:46;1.35;;;0.50;;
64142;SDS011;50437;51.970;5.904;2023-02-28T17:55:12;3.40;;;0.70;;
64142;SDS011;50437;51.970;5.904;2023-02-28T17:57:40;1.95;;;0.70;;
64142;SDS011;50437;51.970;5.904;2023-02-28T18:00:07;1.23;;;0.47;;
64142;SDS011;50437;51.970;5.904;2023-02-28T18:02:38;0.85;;;0.60;;
64142;SDS011;50437;51.970;5.904;2023-02-28T18:05:07;3.60;;;0.90;;
64142;SDS011;50437;51.970;5.904;2023-02-28T18:10:02;5.88;;;0.50;;
64142;SDS011;50437;51.970;5.904;2023-02-28T18:15:09;1.13;;;0.60;;
64142;SDS011;50437;51.970;5.904;2023-02-28T18:17:47;2.15;;;0.50;;
64142;SDS011;50437;51.970;5.904;2023-02-28T18:20:17;1.33;;;0.40;;
64142;SDS011;50437;51.970;5.904;2023-02-28T18:22:44;0.93;;;0.57;;
64142;SDS011;50437;51.970;5.904;2023-02-28T18:25:10;0.83;;;0.50;;
64142;SDS011;50437;51.970;5.904;2023-02-28T18:27:42;2.70;;;0.68;;